Time;durP1;ratioP1;P1;durP2;ratioP2;P2;SDS_P1;SDS_P2;PMS_P1;PMS_P2;Temp;Humidity;BMP_temperature;BMP_pressure;BME280_temperature;BME280_humidity;BME280_pressure;Samples;Min_cycle;Max_cycle;Signal;HPM_P1;HPM_P2
2022/03/11 00:00:31;;;;;;;10.85;6.50;;;6.70;64.70;;;;;;5052232;28;20068;-73
2022/03/11 00:02:57;;;;;;;11.23;7.32;;;6.70;65.00;;;;;;5050939;28;20119;-73
2022/03/11 00:05:22;;;;;;;11.13;7.30;;;6.70;65.30;;;;;;5050623;28;20525;-73
2022/03/11 00:07:48;;;;;;;10.43;6.95;;;6.70;65.70;;;;;;5050840;28;20083;-73
2022/03/11 00:10:14;;;;;;;10.73;7.10;;;6.60;65.90;;;;;;5050927;28;20040;-73
2022/03/11 00:12:40;;;;;;;12.75;7.22;;;6.70;66.20;;;;;;5050747;28;20103;-73
2022/03/11 00:15:06;;;;;;;11.38;7.05;;;6.60;66.50;;;;;;5050945;28;20041;-73
2022/03/11 00:17:32;;;;;;;10.45;6.88;;;6.50;67.00;;;;;;5051800;28;20095;-73
2022/03/11 00:19:58;;;;;;;13.23;7.15;;;6.50;67.40;;;;;;5050772;28;20467;-73
2022/03/11 00:22:24;;;;;;;10.63;7.03;;;6.50;68.00;;;;;;5050664;28;20072;-73
2022/03/11 00:24:49;;;;;;;12.18;7.47;;;6.40;68.70;;;;;;5050691;28;20075;-72
2022/03/11 00:27:15;;;;;;;10.68;7.28;;;6.40;69.20;;;;;;5050329;28;20127;-71
2022/03/11 00:29:41;;;;;;;12.57;6.90;;;6.30;69.90;;;;;;5050500;28;20273;-71
2022/03/11 00:32:07;;;;;;;10.90;6.50;;;6.30;70.40;;;;;;5050947;28;20036;-71
2022/03/11 00:34:34;;;;;;;11.90;7.53;;;6.30;71.50;;;;;;5050538;28;20045;-71
2022/03/11 00:37:00;;;;;;;13.23;7.80;;;6.30;71.20;;;;;;5050443;28;20444;-71
2022/03/11 00:39:26;;;;;;;10.55;7.03;;;6.20;71.80;;;;;;5050749;28;20045;-71
2022/03/11 00:41:51;;;;;;;14.07;7.72;;;6.30;72.20;;;;;;5050425;28;20085;-71
2022/03/11 00:44:17;;;;;;;11.85;7.05;;;6.20;72.90;;;;;;5050300;28;20139;-71
2022/03/11 00:46:43;;;;;;;14.20;8.18;;;6.20;73.30;;;;;;5049961;28;20041;-71
2022/03/11 00:49:08;;;;;;;14.80;7.32;;;6.20;73.60;;;;;;5050423;28;20143;-71
2022/03/11 00:51:34;;;;;;;13.27;7.72;;;6.10;74.40;;;;;;5050347;28;20033;-71
2022/03/11 00:54:00;;;;;;;12.77;7.75;;;6.10;75.10;;;;;;5050357;28;20486;-70
2022/03/11 00:56:27;;;;;;;14.90;7.50;;;6.10;75.30;;;;;;5049888;28;20041;-71
2022/03/11 00:58:52;;;;;;;14.13;8.48;;;6.00;76.30;;;;;;5050503;28;20546;-71
2022/03/11 01:01:18;;;;;;;12.73;7.82;;;6.00;76.80;;;;;;5050440;28;20120;-71
2022/03/11 01:03:44;;;;;;;15.23;8.07;;;6.00;77.30;;;;;;5050210;28;20041;-71
2022/03/11 01:06:09;;;;;;;11.93;8.82;;;6.00;78.20;;;;;;5049943;28;20102;-71
2022/03/11 01:08:35;;;;;;;16.08;10.05;;;6.00;78.80;;;;;;5054275;28;20036;-72
2022/03/11 01:11:01;;;;;;;12.45;7.90;;;5.90;79.80;;;;;;5037837;28;20044;-71
2022/03/11 01:13:27;;;;;;;14.52;9.70;;;5.90;80.20;;;;;;5054041;28;20489;-71
2022/03/11 01:15:52;;;;;;;15.88;9.45;;;5.90;81.00;;;;;;5053827;28;20461;-71
2022/03/11 01:18:18;;;;;;;13.32;9.05;;;5.90;81.60;;;;;;5053933;28;20072;-71
2022/03/11 01:20:43;;;;;;;16.02;9.10;;;5.80;82.10;;;;;;5054058;28;20056;-71
2022/03/11 01:23:09;;;;;;;16.80;10.15;;;5.80;83.40;;;;;;5053926;28;20070;-71
2022/03/11 01:25:34;;;;;;;16.30;10.88;;;5.80;83.90;;;;;;5053567;28;20076;-71
2022/03/11 01:28:00;;;;;;;17.45;10.77;;;5.80;84.90;;;;;;5053913;28;20429;-72
2022/03/11 01:30:25;;;;;;;17.10;10.65;;;5.70;86.00;;;;;;5054118;28;20495;-71
2022/03/11 01:32:51;;;;;;;17.65;10.95;;;5.70;86.70;;;;;;5037110;28;20037;-71
2022/03/11 01:35:17;;;;;;;16.08;10.90;;;5.70;87.50;;;;;;5053887;28;20116;-71
2022/03/11 01:37:43;;;;;;;18.67;10.63;;;5.60;88.60;;;;;;5053523;28;20530;-71
2022/03/11 01:40:08;;;;;;;17.95;11.65;;;5.60;89.70;;;;;;5054944;28;20517;-71
2022/03/11 01:42:36;;;;;;;16.17;10.10;;;5.60;90.00;;;;;;5053443;28;20033;-71
2022/03/11 01:45:03;;;;;;;18.45;10.88;;;5.50;90.40;;;;;;5053285;28;20072;-72
2022/03/11 01:47:28;;;;;;;15.82;11.70;;;5.50;90.90;;;;;;5052996;28;20041;-71
2022/03/11 01:49:54;;;;;;;15.02;10.43;;;5.50;91.10;;;;;;5053682;28;20087;-71
2022/03/11 01:52:20;;;;;;;18.20;11.98;;;5.50;91.60;;;;;;5036912;28;20494;-71
2022/03/11 01:54:46;;;;;;;18.48;11.77;;;5.50;92.20;;;;;;5054691;28;20445;-71
2022/03/11 01:57:13;;;;;;;17.90;11.57;;;5.40;92.40;;;;;;5053308;28;20134;-71
2022/03/11 01:59:39;;;;;;;18.20;12.27;;;5.40;92.70;;;;;;5053357;28;20076;-71
2022/03/11 02:02:06;;;;;;;22.98;13.75;;;5.30;93.10;;;;;;5054381;28;20492;-71
2022/03/11 02:04:31;;;;;;;19.20;12.85;;;5.40;93.40;;;;;;5053484;28;20040;-71
2022/03/11 02:06:57;;;;;;;22.38;12.48;;;5.30;93.70;;;;;;5052808;28;20098;-71
2022/03/11 02:09:23;;;;;;;20.65;13.38;;;5.30;94.10;;;;;;5053116;28;20045;-71
2022/03/11 02:11:49;;;;;;;22.95;13.65;;;5.30;94.40;;;;;;5053348;28;20040;-71
2022/03/11 02:14:14;;;;;;;21.98;12.90;;;5.30;94.70;;;;;;5053069;28;20048;-71
2022/03/11 02:16:40;;;;;;;19.35;12.68;;;5.30;94.80;;;;;;5052436;28;20060;-71
2022/03/11 02:19:08;;;;;;;19.67;14.35;;;5.20;95.40;;;;;;5052658;28;20132;-71
2022/03/11 02:21:43;;;;;;;21.60;13.90;;;5.10;95.90;;;;;;5052894;28;20045;-71
2022/03/11 02:24:09;;;;;;;23.42;14.10;;;5.20;95.80;;;;;;5053209;28;20402;-71
2022/03/11 02:26:35;;;;;;;21.48;14.50;;;5.10;95.90;;;;;;5052374;28;20048;-71
2022/03/11 02:29:01;;;;;;;21.25;13.75;;;5.10;96.20;;;;;;5053022;28;20037;-71
2022/03/11 02:31:29;;;;;;;23.38;15.32;;;5.10;96.40;;;;;;5052968;28;20041;-71
2022/03/11 02:33:56;;;;;;;22.67;15.95;;;5.20;96.20;;;;;;5052884;28;20453;-71
2022/03/11 02:36:22;;;;;;;24.38;15.60;;;5.20;96.50;;;;;;5053777;28;20087;-71
2022/03/11 02:38:48;;;;;;;23.33;14.38;;;5.10;96.60;;;;;;5052855;28;20037;-71
2022/03/11 02:41:14;;;;;;;27.17;14.90;;;5.20;96.80;;;;;;5052612;28;20095;-71
2022/03/11 02:43:42;;;;;;;25.27;14.85;;;5.10;96.80;;;;;;5053250;28;20048;-71
2022/03/11 02:46:09;;;;;;;22.85;15.68;;;5.00;97.00;;;;;;5051842;28;20080;-71
2022/03/11 02:48:35;;;;;;;29.90;16.27;;;5.10;97.20;;;;;;5052419;28;20047;-71
2022/03/11 02:51:00;;;;;;;24.20;14.73;;;5.10;97.10;;;;;;5052323;28;20398;-71
2022/03/11 02:53:26;;;;;;;27.02;16.23;;;5.10;97.60;;;;;;5053706;28;20113;-71
2022/03/11 02:55:52;;;;;;;23.33;16.10;;;5.00;97.20;;;;;;5052001;28;20391;-71
2022/03/11 02:58:20;;;;;;;27.70;17.00;;;5.00;97.60;;;;;;5052100;28;20037;-71
2022/03/11 03:00:46;;;;;;;27.08;18.25;;;5.00;97.80;;;;;;5052376;28;20040;-71
2022/03/11 03:03:11;;;;;;;31.25;18.08;;;5.00;97.70;;;;;;5052141;28;20072;-71
2022/03/11 03:05:37;;;;;;;24.10;16.33;;;4.90;97.90;;;;;;5051696;28;20073;-72
2022/03/11 03:08:03;;;;;;;24.88;15.57;;;4.90;98.00;;;;;;5051975;28;20072;-71
2022/03/11 03:10:29;;;;;;;23.95;16.92;;;4.90;98.10;;;;;;5051937;28;20043;-71
2022/03/11 03:12:54;;;;;;;27.85;17.95;;;4.90;98.20;;;;;;5051836;28;20119;-71
2022/03/11 03:15:20;;;;;;;27.52;15.60;;;4.90;98.20;;;;;;5051627;28;20071;-71
2022/03/11 03:17:46;;;;;;;27.40;17.08;;;4.80;98.50;;;;;;5052962;28;20113;-71
2022/03/11 03:20:11;;;;;;;28.80;17.70;;;4.80;98.60;;;;;;5051816;28;20187;-71
2022/03/11 03:22:37;;;;;;;25.40;15.90;;;4.80;98.60;;;;;;5051977;28;20041;-71
2022/03/11 03:25:04;;;;;;;28.00;17.63;;;4.80;98.30;;;;;;5053005;28;20048;-71
2022/03/11 03:27:29;;;;;;;29.88;17.65;;;4.80;98.60;;;;;;5034551;28;20402;-71
2022/03/11 03:29:55;;;;;;;27.35;17.48;;;4.70;98.70;;;;;;5051067;28;20039;-71
2022/03/11 03:32:21;;;;;;;27.65;15.57;;;4.70;98.90;;;;;;5051529;28;20075;-71
2022/03/11 03:34:46;;;;;;;32.08;19.55;;;4.70;98.90;;;;;;5051577;28;20071;-71
2022/03/11 03:37:12;;;;;;;26.30;16.00;;;4.70;98.90;;;;;;5051075;28;20040;-71
2022/03/11 03:39:40;;;;;;;28.70;18.52;;;4.60;99.20;;;;;;5051683;28;20037;-71
2022/03/11 03:42:06;;;;;;;31.30;18.77;;;4.60;99.10;;;;;;5051530;28;20429;-71
2022/03/11 03:44:32;;;;;;;28.48;17.60;;;4.60;99.40;;;;;;5051027;28;20067;-72
2022/03/11 03:46:58;;;;;;;28.65;17.20;;;4.60;99.50;;;;;;5050806;28;20041;-71
2022/03/11 03:49:23;;;;;;;29.85;19.23;;;4.50;99.50;;;;;;5051543;28;20116;-71
2022/03/11 03:51:49;;;;;;;28.05;17.60;;;4.60;99.40;;;;;;5051249;28;20506;-71
2022/03/11 03:54:16;;;;;;;29.40;18.70;;;4.50;99.30;;;;;;5051217;28;20068;-71
2022/03/11 03:56:43;;;;;;;30.40;18.30;;;4.50;99.50;;;;;;5052252;28;20038;-71
2022/03/11 03:59:10;;;;;;;28.70;18.52;;;4.50;99.70;;;;;;5051081;28;20132;-71
2022/03/11 04:01:38;;;;;;;26.48;17.17;;;4.40;99.60;;;;;;5052426;28;20037;-71
2022/03/11 04:04:04;;;;;;;27.83;17.25;;;4.50;99.50;;;;;;5051007;28;20045;-71
2022/03/11 04:06:31;;;;;;;28.83;17.73;;;4.40;99.60;;;;;;5050396;28;20052;-72
2022/03/11 04:08:57;;;;;;;29.75;17.80;;;4.40;99.70;;;;;;5051279;28;20041;-71
2022/03/11 04:11:24;;;;;;;26.75;17.67;;;4.40;99.60;;;;;;5050882;28;20043;-71
2022/03/11 04:13:50;;;;;;;30.42;18.70;;;4.30;99.80;;;;;;5050829;28;20037;-71
2022/03/11 04:16:16;;;;;;;28.95;18.02;;;4.30;99.90;;;;;;5050356;28;20506;-71
2022/03/11 04:18:42;;;;;;;30.00;18.20;;;4.30;99.90;;;;;;5050735;28;20045;-71
2022/03/11 04:21:07;;;;;;;26.90;17.73;;;4.30;99.90;;;;;;5052080;28;20044;-72
2022/03/11 04:23:33;;;;;;;28.88;17.92;;;4.30;99.90;;;;;;5050783;28;20044;-71
2022/03/11 04:25:58;;;;;;;30.75;18.42;;;4.20;99.90;;;;;;5050180;28;20043;-71
2022/03/11 04:28:24;;;;;;;29.05;17.83;;;4.20;99.90;;;;;;5050485;28;20041;-71
2022/03/11 04:30:50;;;;;;;27.73;18.35;;;4.10;99.90;;;;;;5050667;28;20076;-71
2022/03/11 04:33:15;;;;;;;27.70;17.83;;;4.10;99.90;;;;;;5050387;28;20039;-71
2022/03/11 04:35:41;;;;;;;28.48;18.92;;;4.00;99.90;;;;;;5050156;28;20131;-71
2022/03/11 04:38:07;;;;;;;31.20;19.00;;;4.00;99.90;;;;;;5050551;28;20048;-71
2022/03/11 04:40:32;;;;;;;26.55;17.50;;;4.00;99.90;;;;;;5050436;28;20067;-71
2022/03/11 04:42:58;;;;;;;28.65;17.80;;;4.10;99.90;;;;;;5050325;28;20072;-71
2022/03/11 04:45:24;;;;;;;30.15;18.60;;;4.10;99.90;;;;;;5050744;28;20124;-71
2022/03/11 04:47:50;;;;;;;30.25;18.55;;;4.00;99.90;;;;;;5050433;28;20133;-71
2022/03/11 04:50:15;;;;;;;30.15;19.35;;;4.00;99.90;;;;;;5050646;28;20037;-71
2022/03/11 04:52:41;;;;;;;31.75;19.05;;;4.00;99.90;;;;;;5050578;28;20546;-71
2022/03/11 04:55:07;;;;;;;33.20;18.90;;;4.00;99.90;;;;;;5051532;28;20126;-71
2022/03/11 04:57:32;;;;;;;30.23;17.40;;;3.90;99.90;;;;;;5050223;28;20068;-71
2022/03/11 04:59:59;;;;;;;28.73;17.88;;;3.90;99.90;;;;;;5050177;28;20506;-71
2022/03/11 05:02:28;;;;;;;27.45;16.70;;;3.80;99.90;;;;;;5050322;28;20049;-71
2022/03/11 05:04:54;;;;;;;27.40;17.40;;;3.80;99.90;;;;;;5051575;28;20120;-71
2022/03/11 05:07:19;;;;;;;28.67;18.15;;;3.80;99.90;;;;;;5049748;28;20620;-72
2022/03/11 05:09:46;;;;;;;31.65;18.33;;;3.70;99.90;;;;;;5051396;28;20043;-71
2022/03/11 05:12:12;;;;;;;29.45;18.85;;;3.70;99.90;;;;;;5050164;28;20154;-71
2022/03/11 05:14:38;;;;;;;26.95;17.67;;;3.70;99.90;;;;;;5051187;28;20471;-72
2022/03/11 05:17:04;;;;;;;30.40;18.52;;;3.60;99.90;;;;;;5050056;28;20692;-72
2022/03/11 05:19:29;;;;;;;29.65;18.08;;;3.60;99.90;;;;;;5050327;28;20122;-71
2022/03/11 05:21:55;;;;;;;29.83;17.23;;;3.60;99.90;;;;;;5050292;28;20118;-72
2022/03/11 05:24:21;;;;;;;29.73;18.50;;;3.60;99.90;;;;;;5050305;28;20044;-72
2022/03/11 05:26:48;;;;;;;29.77;18.42;;;3.60;99.90;;;;;;5049576;28;20037;-71
2022/03/11 05:29:14;;;;;;;28.02;17.17;;;3.70;99.90;;;;;;5049880;28;20498;-72
2022/03/11 05:31:39;;;;;;;29.10;18.00;;;3.70;99.90;;;;;;5049979;28;20099;-71
2022/03/11 05:34:05;;;;;;;32.78;17.67;;;3.70;99.90;;;;;;5049987;28;20091;-72
2022/03/11 05:36:30;;;;;;;29.15;17.17;;;3.70;99.90;;;;;;5050931;28;20059;-71
2022/03/11 05:38:57;;;;;;;27.02;17.45;;;3.70;99.90;;;;;;5050208;28;20049;-72
2022/03/11 05:41:23;;;;;;;29.88;18.48;;;3.60;99.90;;;;;;5050114;28;20045;-71
2022/03/11 05:43:48;;;;;;;29.48;18.88;;;3.50;99.90;;;;;;5049186;28;20490;-71
2022/03/11 05:46:14;;;;;;;24.83;16.80;;;3.60;99.90;;;;;;5049266;28;20111;-72
2022/03/11 05:48:39;;;;;;;30.90;17.98;;;3.50;99.90;;;;;;5050036;28;20437;-71
2022/03/11 05:51:05;;;;;;;32.60;18.95;;;3.50;99.90;;;;;;5049722;28;20075;-71
2022/03/11 05:53:31;;;;;;;29.90;17.73;;;3.50;99.90;;;;;;5051839;28;20041;-71
2022/03/11 05:55:57;;;;;;;27.58;17.05;;;3.50;99.90;;;;;;5053019;28;20044;-71
2022/03/11 05:58:22;;;;;;;26.75;17.42;;;3.50;99.90;;;;;;5053488;28;20041;-71
2022/03/11 06:00:49;;;;;;;31.35;18.15;;;3.50;99.90;;;;;;5053208;28;20095;-71
2022/03/11 06:03:15;;;;;;;27.15;17.58;;;3.50;99.90;;;;;;5053200;28;20045;-71
2022/03/11 06:05:40;;;;;;;29.88;18.38;;;3.50;99.90;;;;;;5052856;28;20114;-72
2022/03/11 06:08:06;;;;;;;28.13;16.88;;;3.50;99.90;;;;;;5053355;28;20048;-71
2022/03/11 06:10:31;;;;;;;28.58;16.92;;;3.50;99.90;;;;;;5053135;28;20048;-71
2022/03/11 06:12:57;;;;;;;30.08;17.98;;;3.40;99.90;;;;;;5053197;28;20041;-71
2022/03/11 06:15:22;;;;;;;28.48;16.60;;;3.40;99.90;;;;;;5052751;28;20047;-72
2022/03/11 06:17:48;;;;;;;35.20;17.58;;;3.40;99.90;;;;;;5053207;28;20053;-72
2022/03/11 06:20:14;;;;;;;26.58;17.17;;;3.40;99.90;;;;;;5054200;28;20040;-72
2022/03/11 06:22:50;;;;;;;26.25;18.08;;;3.40;99.90;;;;;;5054144;28;20052;-72
2022/03/11 06:25:19;;;;;;;32.03;18.25;;;3.40;99.90;;;;;;5052836;28;20052;-72
2022/03/11 06:27:46;;;;;;;33.45;17.13;;;3.40;99.90;;;;;;5054170;28;20044;-73
2022/03/11 06:30:12;;;;;;;27.17;17.17;;;3.40;99.90;;;;;;5054412;28;20037;-72
2022/03/11 06:32:45;;;;;;;29.77;17.73;;;3.50;99.90;;;;;;5053119;28;20552;-72
2022/03/11 06:35:13;;;;;;;29.65;17.23;;;3.50;99.80;;;;;;5053940;28;20127;-72
2022/03/11 06:37:43;;;;;;;28.60;16.58;;;3.50;99.50;;;;;;5052254;28;20095;-72
2022/03/11 06:40:10;;;;;;;28.27;16.83;;;3.50;99.20;;;;;;5052555;28;20094;-72
2022/03/11 06:42:37;;;;;;;29.23;15.82;;;3.60;98.90;;;;;;5052526;28;20051;-72
2022/03/11 06:45:03;;;;;;;28.08;17.52;;;3.60;98.70;;;;;;5053255;28;20525;-72
2022/03/11 06:47:29;;;;;;;27.10;16.13;;;3.70;98.40;;;;;;5052985;28;20048;-72
2022/03/11 06:49:55;;;;;;;25.52;15.93;;;3.70;98.50;;;;;;5052297;28;20037;-73
2022/03/11 06:52:20;;;;;;;29.75;16.98;;;3.80;98.00;;;;;;5052567;28;20114;-72
2022/03/11 06:54:46;;;;;;;28.23;16.65;;;3.90;97.50;;;;;;5052492;28;20079;-72
2022/03/11 06:57:12;;;;;;;29.80;18.58;;;4.00;97.20;;;;;;5051949;28;20078;-72
2022/03/11 06:59:37;;;;;;;23.95;15.73;;;4.10;96.50;;;;;;5052530;28;20130;-72
2022/03/11 07:02:03;;;;;;;27.50;17.27;;;4.30;96.00;;;;;;5052111;28;20045;-72
2022/03/11 07:04:28;;;;;;;25.75;16.77;;;4.40;95.50;;;;;;5051151;28;20045;-72
2022/03/11 07:06:54;;;;;;;25.90;15.70;;;4.60;95.00;;;;;;5051769;28;20041;-72
2022/03/11 07:09:19;;;;;;;25.50;16.38;;;4.70;94.40;;;;;;5051874;28;20649;-72
2022/03/11 07:11:46;;;;;;;22.95;15.82;;;4.80;93.70;;;;;;5052017;28;20041;-72
2022/03/11 07:14:12;;;;;;;27.83;16.25;;;4.80;93.10;;;;;;5051876;28;20041;-72
2022/03/11 07:16:38;;;;;;;27.48;16.83;;;5.00;92.70;;;;;;5051419;28;20426;-73
2022/03/11 07:19:03;;;;;;;24.40;16.15;;;5.10;92.30;;;;;;5051780;28;20053;-73
2022/03/11 07:21:29;;;;;;;32.78;17.00;;;5.20;91.60;;;;;;5051595;28;20037;-73
2022/03/11 07:23:56;;;;;;;25.52;16.30;;;5.40;90.90;;;;;;5051712;28;20076;-71
2022/03/11 07:26:22;;;;;;;29.35;17.52;;;5.40;90.20;;;;;;5051276;28;20045;-73
2022/03/11 07:28:47;;;;;;;23.48;16.00;;;5.50;89.40;;;;;;5051782;28;20044;-71
2022/03/11 07:31:13;;;;;;;26.25;15.30;;;5.60;88.80;;;;;;5051473;28;20383;-71
2022/03/11 07:33:39;;;;;;;24.25;15.07;;;5.70;88.00;;;;;;5051556;28;20043;-73
2022/03/11 07:36:05;;;;;;;24.52;15.35;;;5.80;86.40;;;;;;5051273;28;20095;-73
2022/03/11 07:38:31;;;;;;;30.17;16.05;;;5.90;85.30;;;;;;5051600;28;20049;-72
2022/03/11 07:40:58;;;;;;;23.80;15.02;;;5.90;83.80;;;;;;5051390;28;20063;-72
2022/03/11 07:43:25;;;;;;;24.77;15.43;;;6.00;83.30;;;;;;5052520;28;20498;-72
2022/03/11 07:45:52;;;;;;;28.15;16.27;;;6.20;82.50;;;;;;5052220;28;20045;-72
2022/03/11 07:48:18;;;;;;;26.95;16.65;;;6.30;80.80;;;;;;5051260;28;20429;-72
2022/03/11 07:50:45;;;;;;;25.60;15.63;;;6.30;80.00;;;;;;5051360;28;20041;-72
2022/03/11 07:53:11;;;;;;;26.23;16.15;;;6.40;79.00;;;;;;5051015;28;20037;-71
2022/03/11 07:55:37;;;;;;;24.25;15.57;;;6.40;79.00;;;;;;5050822;28;20498;-72
2022/03/11 07:58:03;;;;;;;23.52;15.10;;;6.50;78.10;;;;;;5052229;28;20045;-71
2022/03/11 08:00:29;;;;;;;27.80;16.42;;;6.60;78.20;;;;;;5051186;28;20040;-72
2022/03/11 08:02:54;;;;;;;28.83;18.33;;;6.60;76.70;;;;;;5051140;28;20490;-72
2022/03/11 08:05:20;;;;;;;25.38;16.33;;;6.80;76.40;;;;;;5050649;28;20127;-71
2022/03/11 08:07:48;;;;;;;26.55;16.98;;;6.80;76.00;;;;;;5050655;28;20041;-72
2022/03/11 08:10:14;;;;;;;27.85;16.88;;;7.00;75.80;;;;;;5050855;28;20048;-72
2022/03/11 08:12:40;;;;;;;25.48;17.92;;;7.10;75.40;;;;;;5050890;28;20060;-73
2022/03/11 08:15:06;;;;;;;25.65;16.42;;;7.10;74.00;;;;;;5050193;28;20403;-73
2022/03/11 08:17:32;;;;;;;23.95;16.23;;;7.10;73.20;;;;;;5050386;28;20045;-73
2022/03/11 08:19:58;;;;;;;25.23;15.98;;;7.10;72.70;;;;;;5050631;28;20041;-76
2022/03/11 08:22:23;;;;;;;24.20;17.45;;;7.30;73.30;;;;;;5050627;28;20415;-73
2022/03/11 08:24:49;;;;;;;24.38;16.25;;;7.30;72.90;;;;;;5050677;28;20040;-73
2022/03/11 08:27:15;;;;;;;24.52;15.93;;;7.30;71.40;;;;;;5050119;28;20047;-73
2022/03/11 08:29:40;;;;;;;26.85;16.95;;;7.30;70.60;;;;;;5050141;28;20045;-73
2022/03/11 08:32:06;;;;;;;24.05;15.43;;;7.40;70.70;;;;;;5050254;28;20404;-73
2022/03/11 08:34:32;;;;;;;29.70;16.70;;;7.50;71.00;;;;;;5049924;28;20039;-74
2022/03/11 08:36:58;;;;;;;25.88;16.92;;;7.50;69.80;;;;;;5049695;28;20036;-74
2022/03/11 08:39:23;;;;;;;24.67;15.73;;;7.50;68.90;;;;;;5033570;28;20098;-74
2022/03/11 08:41:49;;;;;;;27.80;16.55;;;7.40;68.50;;;;;;5050206;28;20048;-73
2022/03/11 08:44:14;;;;;;;26.10;17.23;;;7.50;68.60;;;;;;5049132;28;20068;-73
2022/03/11 08:46:43;;;;;;;24.80;15.35;;;7.50;67.70;;;;;;5049372;28;20441;-74
2022/03/11 08:49:08;;;;;;;24.52;15.10;;;7.40;67.40;;;;;;5049997;28;20033;-74
2022/03/11 08:51:34;;;;;;;23.08;15.38;;;7.50;68.30;;;;;;5050135;28;20052;-73
2022/03/11 08:54:00;;;;;;;26.27;16.27;;;7.50;68.60;;;;;;5050217;28;20071;-73
2022/03/11 08:56:25;;;;;;;26.35;16.63;;;7.60;67.20;;;;;;5049912;28;20049;-73
2022/03/11 08:58:51;;;;;;;28.75;17.88;;;7.60;67.40;;;;;;5050539;28;20041;-73
2022/03/11 09:01:17;;;;;;;27.42;16.08;;;7.60;66.70;;;;;;5050408;28;20047;-75
2022/03/11 09:03:43;;;;;;;26.05;15.63;;;7.70;66.70;;;;;;5050311;28;20119;-73
2022/03/11 09:06:09;;;;;;;24.02;16.15;;;7.70;65.80;;;;;;5051080;28;20171;-72
2022/03/11 09:08:34;;;;;;;24.63;16.30;;;7.60;65.90;;;;;;5051284;28;20032;-73
2022/03/11 09:11:00;;;;;;;23.38;16.63;;;7.70;66.20;;;;;;5050072;28;20048;-72
2022/03/11 09:13:25;;;;;;;23.67;15.88;;;7.70;66.10;;;;;;5050077;28;20037;-73
2022/03/11 09:15:51;;;;;;;23.10;15.43;;;7.70;66.00;;;;;;5051160;28;20103;-72
2022/03/11 09:18:16;;;;;;;24.20;16.40;;;7.70;65.80;;;;;;5049939;28;20072;-73
2022/03/11 09:20:42;;;;;;;26.52;16.67;;;7.60;65.60;;;;;;5052477;28;20386;-74
2022/03/11 09:23:10;;;;;;;25.35;16.40;;;7.60;66.10;;;;;;5050384;28;20120;-73
2022/03/11 09:25:36;;;;;;;27.17;16.65;;;7.60;65.70;;;;;;5049664;28;20517;-73
2022/03/11 09:28:02;;;;;;;26.27;16.35;;;7.60;64.80;;;;;;5051406;28;20557;-74
2022/03/11 09:30:28;;;;;;;26.33;16.98;;;7.60;64.60;;;;;;5055109;28;20128;-74
2022/03/11 09:32:54;;;;;;;24.83;16.83;;;7.70;65.30;;;;;;5053853;28;20045;-73
2022/03/11 09:35:19;;;;;;;25.38;15.73;;;7.70;65.10;;;;;;5054675;28;20045;-74
2022/03/11 09:37:45;;;;;;;24.27;16.30;;;7.70;64.30;;;;;;5036849;28;20052;-76
2022/03/11 09:40:12;;;;;;;24.88;15.93;;;7.80;63.70;;;;;;5053598;28;20041;-72
2022/03/11 09:42:38;;;;;;;21.48;14.57;;;7.80;63.30;;;;;;5053500;28;20045;-70
2022/03/11 09:45:05;;;;;;;23.63;15.63;;;7.80;62.90;;;;;;5054574;28;20041;-72
2022/03/11 09:47:31;;;;;;;27.83;16.65;;;7.90;62.40;;;;;;5052789;28;20049;-71
2022/03/11 09:49:56;;;;;;;26.73;16.60;;;7.90;62.90;;;;;;5053487;28;20127;-73
2022/03/11 09:52:23;;;;;;;29.17;15.68;;;8.00;62.60;;;;;;5053325;28;20041;-73
2022/03/11 09:54:49;;;;;;;25.13;16.40;;;8.00;61.30;;;;;;5053446;28;20114;-73
2022/03/11 09:57:22;;;;;;;22.88;15.60;;;8.00;60.20;;;;;;5052885;28;20073;-73
2022/03/11 09:59:48;;;;;;;23.58;15.68;;;8.00;60.10;;;;;;5053503;28;20033;-73
2022/03/11 10:02:15;;;;;;;24.30;15.60;;;8.00;60.00;;;;;;5053477;28;20095;-73
2022/03/11 10:04:48;;;;;;;25.02;16.35;;;8.00;60.40;;;;;;5053171;28;20672;-74
2022/03/11 10:07:30;;;;;;;24.52;15.55;;;8.00;59.70;;;;;;5036244;28;20132;-72
2022/03/11 10:09:57;;;;;;;22.60;14.32;;;8.10;59.80;;;;;;5053036;28;20033;-73
2022/03/11 10:12:26;;;;;;;23.50;14.48;;;8.10;59.20;;;;;;5053347;28;20048;-73
2022/03/11 10:15:00;;;;;;;21.05;14.10;;;8.10;59.20;;;;;;5053008;28;20033;-74
2022/03/11 10:17:27;;;;;;;25.13;15.77;;;8.20;59.20;;;;;;5051920;28;20537;-73
2022/03/11 10:20:20;;;;;;;24.48;15.20;;;8.30;60.10;;;;;;5052102;28;20040;-73
2022/03/11 10:22:45;;;;;;;20.95;14.50;;;8.20;59.00;;;;;;5050001;28;20087;-74
2022/03/11 10:25:25;;;;;;;25.25;15.57;;;8.30;59.10;;;;;;5062261;28;20082;-74
2022/03/11 10:28:04;;;;;;;22.70;16.38;;;8.30;58.70;;;;;;5068677;28;20044;-73
2022/03/11 10:30:35;;;;;;;23.02;15.32;;;8.30;58.70;;;;;;5072713;28;20047;-74
2022/03/11 10:33:03;;;;;;;24.13;15.23;;;8.20;58.00;;;;;;5074078;28;20060;-73
2022/03/11 10:35:45;;;;;;;23.38;15.38;;;8.20;58.10;;;;;;5055668;28;20072;-74
2022/03/11 10:38:14;;;;;;;21.95;14.45;;;8.30;57.90;;;;;;5072396;28;20462;-74
2022/03/11 10:40:53;;;;;;;25.27;15.23;;;8.30;57.30;;;;;;5072605;28;20115;-74
2022/03/11 10:43:25;;;;;;;23.73;15.35;;;8.30;56.90;;;;;;5072925;28;20032;-72
2022/03/11 10:46:06;;;;;;;21.30;13.52;;;8.30;57.70;;;;;;5072313;28;20044;-73
2022/03/11 10:48:44;;;;;;;20.23;13.43;;;8.30;57.70;;;;;;5072454;28;20564;-73
2022/03/11 10:51:20;;;;;;;28.05;15.70;;;8.40;56.80;;;;;;5073848;28;20048;-73
2022/03/11 10:53:49;;;;;;;26.90;17.00;;;8.50;57.50;;;;;;5072338;28;20441;-73
2022/03/11 10:56:29;;;;;;;20.85;15.20;;;8.50;56.50;;;;;;5056722;28;20041;-72
2022/03/11 10:58:58;;;;;;;22.85;15.63;;;8.60;56.40;;;;;;5051936;28;20561;-73
2022/03/11 11:01:35;;;;;;;21.42;14.77;;;8.70;56.80;;;;;;5051830;28;20040;-75
2022/03/11 11:04:02;;;;;;;22.27;13.82;;;8.70;56.20;;;;;;5052253;28;20033;-73
2022/03/11 11:06:28;;;;;;;25.95;16.10;;;8.80;55.00;;;;;;5051844;28;20061;-73
2022/03/11 11:08:55;;;;;;;22.60;14.73;;;8.80;55.00;;;;;;5051061;28;20036;-74
2022/03/11 11:11:22;;;;;;;21.73;14.65;;;8.80;54.60;;;;;;5053654;28;20033;-73
2022/03/11 11:13:48;;;;;;;24.50;15.07;;;8.90;54.60;;;;;;5052918;28;20079;-73
2022/03/11 11:16:14;;;;;;;19.20;14.88;;;8.90;54.90;;;;;;5051582;28;20052;-72
2022/03/11 11:18:44;;;;;;;22.80;14.85;;;8.90;54.00;;;;;;5051789;28;20494;-72
2022/03/11 11:21:12;;;;;;;19.98;14.15;;;8.90;53.60;;;;;;5053263;28;20025;-73
2022/03/11 11:23:38;;;;;;;20.75;13.70;;;8.90;53.70;;;;;;5051510;28;20116;-73
2022/03/11 11:26:08;;;;;;;20.33;13.18;;;9.00;54.10;;;;;;5034669;28;20045;-74
2022/03/11 11:28:34;;;;;;;23.85;14.55;;;9.10;54.30;;;;;;5051562;28;20578;-73
2022/03/11 11:31:01;;;;;;;22.17;13.50;;;9.00;53.60;;;;;;5051039;28;20044;-73
2022/03/11 11:33:27;;;;;;;24.73;15.35;;;9.10;53.70;;;;;;5051385;28;20041;-74
2022/03/11 11:36:01;;;;;;;21.00;14.43;;;9.20;52.80;;;;;;5051227;28;20175;-74
2022/03/11 11:38:27;;;;;;;21.05;13.25;;;9.20;52.20;;;;;;5050780;28;20037;-73
2022/03/11 11:40:54;;;;;;;22.23;15.20;;;9.20;52.40;;;;;;5051074;28;20098;-74
2022/03/11 11:43:30;;;;;;;19.50;13.10;;;9.20;51.90;;;;;;5051618;28;20429;-74
2022/03/11 11:46:03;;;;;;;20.23;13.77;;;9.30;51.70;;;;;;5051277;28;20149;-74
2022/03/11 11:48:35;;;;;;;20.77;13.93;;;9.30;51.80;;;;;;5050657;28;20092;-74
2022/03/11 11:51:22;;;;;;;23.83;14.20;;;9.30;51.70;;;;;;5050951;28;20448;-73
2022/03/11 11:53:53;;;;;;;19.00;13.13;;;9.30;51.20;;;;;;5051126;28;20636;-73
2022/03/11 11:56:32;;;;;;;18.50;13.38;;;9.40;51.30;;;;;;5050972;28;20049;-73
2022/03/11 11:59:02;;;;;;;20.65;13.73;;;9.50;51.10;;;;;;5051047;28;20045;-73
2022/03/11 12:01:50;;;;;;;18.98;13.20;;;9.50;51.10;;;;;;5051278;28;20429;-73
2022/03/11 12:04:32;;;;;;;19.67;13.07;;;9.60;51.30;;;;;;5050945;28;20041;-73
2022/03/11 12:07:02;;;;;;;19.95;13.52;;;9.60;51.40;;;;;;5050251;28;20071;-75
2022/03/11 12:09:40;;;;;;;22.02;12.98;;;9.70;50.20;;;;;;5050574;28;20641;-74
2022/03/11 12:12:07;;;;;;;20.52;13.23;;;9.80;50.50;;;;;;5048817;28;20388;-73
2022/03/11 12:14:33;;;;;;;21.00;13.40;;;9.80;50.00;;;;;;5051431;28;20066;-73
2022/03/11 12:17:07;;;;;;;19.98;14.75;;;9.90;50.30;;;;;;5050275;28;20043;-73
2022/03/11 12:19:41;;;;;;;20.95;14.23;;;10.00;50.10;;;;;;5050305;28;20052;-74
2022/03/11 12:22:36;;;;;;;24.13;13.57;;;10.00;50.30;;;;;;5050355;28;20094;-74
2022/03/11 12:25:05;;;;;;;16.73;13.65;;;10.00;49.20;;;;;;5022408;28;20045;-73
2022/03/11 12:27:57;;;;;;;21.70;12.32;;;10.00;49.40;;;;;;5013998;28;20049;-72
2022/03/11 12:30:22;;;;;;;18.40;13.25;;;10.00;49.30;;;;;;5031933;28;20076;-71
2022/03/11 12:32:50;;;;;;;22.15;14.45;;;10.00;49.30;;;;;;5031932;28;20080;-72
2022/03/11 12:35:20;;;;;;;19.95;13.05;;;10.10;49.30;;;;;;5030383;28;20040;-71
2022/03/11 12:37:46;;;;;;;20.67;13.70;;;10.20;49.00;;;;;;5030290;28;20494;-72